sensor_id;sensor_type;location;lat;lon;timestamp;temperature;humidity
36816;DHT22;22760;51.910;4.474;2022-08-19T00:00:10;18.00;99.90
36816;DHT22;22760;51.910;4.474;2022-08-19T00:02:39;18.00;99.90
36816;DHT22;22760;51.910;4.474;2022-08-19T00:05:10;18.00;99.90
36816;DHT22;22760;51.910;4.474;2022-08-19T00:07:37;18.00;99.90
36816;DHT22;22760;51.910;4.474;2022-08-19T00:10:05;18.00;99.90
36816;DHT22;22760;51.910;4.474;2022-08-19T00:12:32;18.00;99.90
36816;DHT22;22760;51.910;4.474;2022-08-19T00:14:59;18.00;99.90
36816;DHT22;22760;51.910;4.474;2022-08-19T00:17:26;18.00;99.90
36816;DHT22;22760;51.910;4.474;2022-08-19T00:19:53;18.00;99.90
36816;DHT22;22760;51.910;4.474;2022-08-19T00:22:21;18.00;99.90
36816;DHT22;22760;51.910;4.474;2022-08-19T00:24:48;18.10;99.90
36816;DHT22;22760;51.910;4.474;2022-08-19T00:27:14;18.00;99.90
36816;DHT22;22760;51.910;4.474;2022-08-19T00:29:41;18.00;99.90
36816;DHT22;22760;51.910;4.474;2022-08-19T00:32:08;18.10;99.90
36816;DHT22;22760;51.910;4.474;2022-08-19T00:34:36;18.00;99.90
36816;DHT22;22760;51.910;4.474;2022-08-19T00:37:03;18.00;99.90
36816;DHT22;22760;51.910;4.474;2022-08-19T00:39:31;18.00;99.90
36816;DHT22;22760;51.910;4.474;2022-08-19T00:41:58;18.00;99.90
36816;DHT22;22760;51.910;4.474;2022-08-19T00:44:27;18.00;99.90
36816;DHT22;22760;51.910;4.474;2022-08-19T00:46:56;18.00;99.90
36816;DHT22;22760;51.910;4.474;2022-08-19T00:49:27;18.00;99.90
36816;DHT22;22760;51.910;4.474;2022-08-19T00:51:59;18.00;99.90
36816;DHT22;22760;51.910;4.474;2022-08-19T00:54:27;17.90;99.90
36816;DHT22;22760;51.910;4.474;2022-08-19T00:56:58;17.90;99.90
36816;DHT22;22760;51.910;4.474;2022-08-19T00:59:28;18.00;99.90
36816;DHT22;22760;51.910;4.474;2022-08-19T01:01:55;17.90;99.90
36816;DHT22;22760;51.910;4.474;2022-08-19T01:04:22;17.90;99.90
36816;DHT22;22760;51.910;4.474;2022-08-19T01:06:49;17.90;99.90
36816;DHT22;22760;51.910;4.474;2022-08-19T01:09:16;17.90;99.90
36816;DHT22;22760;51.910;4.474;2022-08-19T01:11:44;17.90;99.90
36816;DHT22;22760;51.910;4.474;2022-08-19T01:14:13;17.90;99.90
36816;DHT22;22760;51.910;4.474;2022-08-19T01:16:41;17.90;99.90
36816;DHT22;22760;51.910;4.474;2022-08-19T01:19:15;17.80;99.90
36816;DHT22;22760;51.910;4.474;2022-08-19T01:21:48;17.80;99.90
36816;DHT22;22760;51.910;4.474;2022-08-19T01:24:17;17.80;99.90
36816;DHT22;22760;51.910;4.474;2022-08-19T01:26:46;17.90;99.90
36816;DHT22;22760;51.910;4.474;2022-08-19T01:29:13;17.90;99.90
36816;DHT22;22760;51.910;4.474;2022-08-19T01:31:40;17.90;99.90
36816;DHT22;22760;51.910;4.474;2022-08-19T01:34:07;17.90;99.90
36816;DHT22;22760;51.910;4.474;2022-08-19T01:36:37;18.00;99.90
36816;DHT22;22760;51.910;4.474;2022-08-19T01:39:08;18.00;99.90
36816;DHT22;22760;51.910;4.474;2022-08-19T01:41:37;18.00;99.90
36816;DHT22;22760;51.910;4.474;2022-08-19T01:44:05;18.00;99.90
36816;DHT22;22760;51.910;4.474;2022-08-19T01:46:32;18.00;99.90
36816;DHT22;22760;51.910;4.474;2022-08-19T01:48:59;18.00;99.90
36816;DHT22;22760;51.910;4.474;2022-08-19T01:51:27;18.00;99.90
36816;DHT22;22760;51.910;4.474;2022-08-19T01:53:54;18.00;99.90
36816;DHT22;22760;51.910;4.474;2022-08-19T01:56:21;18.10;99.90
36816;DHT22;22760;51.910;4.474;2022-08-19T01:58:52;18.10;99.90
36816;DHT22;22760;51.910;4.474;2022-08-19T02:01:20;18.10;99.90
36816;DHT22;22760;51.910;4.474;2022-08-19T02:03:47;18.20;99.90
36816;DHT22;22760;51.910;4.474;2022-08-19T02:06:14;18.20;99.90
36816;DHT22;22760;51.910;4.474;2022-08-19T02:08:43;18.20;99.90
36816;DHT22;22760;51.910;4.474;2022-08-19T02:11:19;18.20;99.90
36816;DHT22;22760;51.910;4.474;2022-08-19T02:13:46;18.40;99.90
36816;DHT22;22760;51.910;4.474;2022-08-19T02:16:16;18.40;99.90
36816;DHT22;22760;51.910;4.474;2022-08-19T02:18:43;18.50;99.90
36816;DHT22;22760;51.910;4.474;2022-08-19T02:21:10;18.50;99.90
36816;DHT22;22760;51.910;4.474;2022-08-19T02:23:38;18.60;99.90
36816;DHT22;22760;51.910;4.474;2022-08-19T02:26:05;18.70;99.90
36816;DHT22;22760;51.910;4.474;2022-08-19T02:28:32;18.70;99.90
36816;DHT22;22760;51.910;4.474;2022-08-19T02:30:59;18.70;99.90
36816;DHT22;22760;51.910;4.474;2022-08-19T02:33:29;18.70;99.90
36816;DHT22;22760;51.910;4.474;2022-08-19T02:35:56;18.70;99.90
36816;DHT22;22760;51.910;4.474;2022-08-19T02:38:22;18.70;99.90
36816;DHT22;22760;51.910;4.474;2022-08-19T02:40:52;18.70;99.90
36816;DHT22;22760;51.910;4.474;2022-08-19T02:43:20;18.70;99.90
36816;DHT22;22760;51.910;4.474;2022-08-19T02:45:48;18.70;99.90
36816;DHT22;22760;51.910;4.474;2022-08-19T02:48:15;18.70;99.90
36816;DHT22;22760;51.910;4.474;2022-08-19T02:50:45;18.70;99.90
36816;DHT22;22760;51.910;4.474;2022-08-19T02:53:12;18.80;99.90
36816;DHT22;22760;51.910;4.474;2022-08-19T02:55:43;18.80;99.90
36816;DHT22;22760;51.910;4.474;2022-08-19T02:58:11;18.80;99.90
36816;DHT22;22760;51.910;4.474;2022-08-19T03:00:42;18.70;99.90
36816;DHT22;22760;51.910;4.474;2022-08-19T03:03:10;18.70;99.90
36816;DHT22;22760;51.910;4.474;2022-08-19T03:05:37;18.70;99.90
36816;DHT22;22760;51.910;4.474;2022-08-19T03:08:05;18.70;99.90
36816;DHT22;22760;51.910;4.474;2022-08-19T03:10:33;18.70;99.90
36816;DHT22;22760;51.910;4.474;2022-08-19T03:13:05;18.70;99.90
36816;DHT22;22760;51.910;4.474;2022-08-19T03:15:32;18.60;99.90
36816;DHT22;22760;51.910;4.474;2022-08-19T03:17:59;18.60;99.90
36816;DHT22;22760;51.910;4.474;2022-08-19T03:20:25;18.60;99.90
36816;DHT22;22760;51.910;4.474;2022-08-19T03:22:52;18.60;99.90
36816;DHT22;22760;51.910;4.474;2022-08-19T03:25:20;18.60;99.90
36816;DHT22;22760;51.910;4.474;2022-08-19T03:27:47;18.60;99.90
36816;DHT22;22760;51.910;4.474;2022-08-19T03:30:14;18.70;99.90
36816;DHT22;22760;51.910;4.474;2022-08-19T03:32:41;18.70;99.90
36816;DHT22;22760;51.910;4.474;2022-08-19T03:35:08;18.70;99.90
36816;DHT22;22760;51.910;4.474;2022-08-19T03:37:35;18.70;99.90
36816;DHT22;22760;51.910;4.474;2022-08-19T03:40:03;18.70;99.90
36816;DHT22;22760;51.910;4.474;2022-08-19T03:42:31;18.70;99.90
36816;DHT22;22760;51.910;4.474;2022-08-19T03:44:58;18.70;99.90
36816;DHT22;22760;51.910;4.474;2022-08-19T03:47:25;18.70;99.90
36816;DHT22;22760;51.910;4.474;2022-08-19T03:49:51;18.70;99.90
36816;DHT22;22760;51.910;4.474;2022-08-19T03:52:18;18.60;99.90
36816;DHT22;22760;51.910;4.474;2022-08-19T03:54:45;18.60;99.90
36816;DHT22;22760;51.910;4.474;2022-08-19T03:57:12;18.60;99.90
36816;DHT22;22760;51.910;4.474;2022-08-19T03:59:40;18.50;99.90
36816;DHT22;22760;51.910;4.474;2022-08-19T04:02:08;18.50;99.90
36816;DHT22;22760;51.910;4.474;2022-08-19T04:04:36;18.50;99.90
36816;DHT22;22760;51.910;4.474;2022-08-19T04:07:04;18.50;99.90
36816;DHT22;22760;51.910;4.474;2022-08-19T04:09:32;18.50;99.90
36816;DHT22;22760;51.910;4.474;2022-08-19T04:11:59;18.60;99.90
36816;DHT22;22760;51.910;4.474;2022-08-19T04:14:28;18.60;99.90
36816;DHT22;22760;51.910;4.474;2022-08-19T04:16:58;18.50;99.90
36816;DHT22;22760;51.910;4.474;2022-08-19T04:19:25;18.50;99.90
36816;DHT22;22760;51.910;4.474;2022-08-19T04:21:54;18.50;99.90
36816;DHT22;22760;51.910;4.474;2022-08-19T04:24:21;18.50;99.90
36816;DHT22;22760;51.910;4.474;2022-08-19T04:26:48;18.50;99.90
36816;DHT22;22760;51.910;4.474;2022-08-19T04:29:18;18.50;99.90
36816;DHT22;22760;51.910;4.474;2022-08-19T04:31:47;18.60;99.90
36816;DHT22;22760;51.910;4.474;2022-08-19T04:34:18;18.60;99.90
36816;DHT22;22760;51.910;4.474;2022-08-19T04:36:47;18.60;99.90
36816;DHT22;22760;51.910;4.474;2022-08-19T04:39:18;18.50;99.90
36816;DHT22;22760;51.910;4.474;2022-08-19T04:41:46;18.50;99.90
36816;DHT22;22760;51.910;4.474;2022-08-19T04:44:30;18.50;99.90
36816;DHT22;22760;51.910;4.474;2022-08-19T04:46:57;18.50;99.90
36816;DHT22;22760;51.910;4.474;2022-08-19T04:49:25;18.50;99.90
36816;DHT22;22760;51.910;4.474;2022-08-19T04:51:53;18.50;99.90
36816;DHT22;22760;51.910;4.474;2022-08-19T04:54:22;18.60;99.90
36816;DHT22;22760;51.910;4.474;2022-08-19T04:56:51;18.60;99.90
36816;DHT22;22760;51.910;4.474;2022-08-19T04:59:18;18.60;99.90
36816;DHT22;22760;51.910;4.474;2022-08-19T05:01:46;18.70;99.90
36816;DHT22;22760;51.910;4.474;2022-08-19T05:04:15;18.60;99.90
36816;DHT22;22760;51.910;4.474;2022-08-19T05:06:44;18.70;99.90
36816;DHT22;22760;51.910;4.474;2022-08-19T05:09:11;18.70;99.90
36816;DHT22;22760;51.910;4.474;2022-08-19T05:11:38;18.70;99.90
36816;DHT22;22760;51.910;4.474;2022-08-19T05:14:05;18.70;99.90
36816;DHT22;22760;51.910;4.474;2022-08-19T05:16:32;18.70;99.90
36816;DHT22;22760;51.910;4.474;2022-08-19T05:18:58;18.70;99.90
36816;DHT22;22760;51.910;4.474;2022-08-19T05:21:45;18.80;99.90
36816;DHT22;22760;51.910;4.474;2022-08-19T05:24:31;18.80;99.90
36816;DHT22;22760;51.910;4.474;2022-08-19T05:27:01;18.80;99.90
36816;DHT22;22760;51.910;4.474;2022-08-19T05:29:29;18.90;99.90
36816;DHT22;22760;51.910;4.474;2022-08-19T05:31:58;18.90;99.90
36816;DHT22;22760;51.910;4.474;2022-08-19T05:34:25;18.90;99.90
36816;DHT22;22760;51.910;4.474;2022-08-19T05:36:55;18.90;99.90
36816;DHT22;22760;51.910;4.474;2022-08-19T05:39:28;18.90;99.90
36816;DHT22;22760;51.910;4.474;2022-08-19T05:41:58;18.90;99.90
36816;DHT22;22760;51.910;4.474;2022-08-19T05:44:26;18.90;99.90
36816;DHT22;22760;51.910;4.474;2022-08-19T05:46:57;18.90;99.90
36816;DHT22;22760;51.910;4.474;2022-08-19T05:49:25;19.00;99.90
36816;DHT22;22760;51.910;4.474;2022-08-19T05:51:55;19.00;99.90
36816;DHT22;22760;51.910;4.474;2022-08-19T05:54:22;19.00;99.90
36816;DHT22;22760;51.910;4.474;2022-08-19T05:56:50;19.00;99.90
36816;DHT22;22760;51.910;4.474;2022-08-19T05:59:18;19.00;99.90
36816;DHT22;22760;51.910;4.474;2022-08-19T06:01:48;19.00;99.90
36816;DHT22;22760;51.910;4.474;2022-08-19T06:04:17;19.00;99.90
36816;DHT22;22760;51.910;4.474;2022-08-19T06:06:45;19.00;99.90
36816;DHT22;22760;51.910;4.474;2022-08-19T06:09:13;19.00;99.90
36816;DHT22;22760;51.910;4.474;2022-08-19T06:11:42;19.10;99.90
36816;DHT22;22760;51.910;4.474;2022-08-19T06:14:11;19.10;99.90
36816;DHT22;22760;51.910;4.474;2022-08-19T06:16:40;19.10;99.90
36816;DHT22;22760;51.910;4.474;2022-08-19T06:19:09;19.20;99.90
36816;DHT22;22760;51.910;4.474;2022-08-19T06:21:37;19.30;99.90
36816;DHT22;22760;51.910;4.474;2022-08-19T06:24:07;19.30;99.90
36816;DHT22;22760;51.910;4.474;2022-08-19T06:26:38;19.30;99.90
36816;DHT22;22760;51.910;4.474;2022-08-19T06:29:07;19.40;99.90
36816;DHT22;22760;51.910;4.474;2022-08-19T06:31:34;19.40;99.90
36816;DHT22;22760;51.910;4.474;2022-08-19T06:34:03;19.50;99.90
36816;DHT22;22760;51.910;4.474;2022-08-19T06:36:33;19.50;99.90
36816;DHT22;22760;51.910;4.474;2022-08-19T06:39:01;19.50;99.90
36816;DHT22;22760;51.910;4.474;2022-08-19T06:41:28;19.70;99.90
36816;DHT22;22760;51.910;4.474;2022-08-19T06:43:57;19.70;99.90
36816;DHT22;22760;51.910;4.474;2022-08-19T06:46:24;19.70;99.90
36816;DHT22;22760;51.910;4.474;2022-08-19T06:48:52;19.60;99.90
36816;DHT22;22760;51.910;4.474;2022-08-19T06:51:20;19.60;99.90
36816;DHT22;22760;51.910;4.474;2022-08-19T06:53:48;19.60;99.90
36816;DHT22;22760;51.910;4.474;2022-08-19T06:56:17;19.60;99.90
36816;DHT22;22760;51.910;4.474;2022-08-19T06:58:45;19.70;99.90
36816;DHT22;22760;51.910;4.474;2022-08-19T07:01:13;19.70;99.90
36816;DHT22;22760;51.910;4.474;2022-08-19T07:03:40;19.80;99.90
36816;DHT22;22760;51.910;4.474;2022-08-19T07:06:10;19.80;99.90
36816;DHT22;22760;51.910;4.474;2022-08-19T07:08:38;19.80;99.90
36816;DHT22;22760;51.910;4.474;2022-08-19T07:11:07;19.80;99.90
36816;DHT22;22760;51.910;4.474;2022-08-19T07:13:34;19.80;99.90
36816;DHT22;22760;51.910;4.474;2022-08-19T07:16:04;19.90;99.90
36816;DHT22;22760;51.910;4.474;2022-08-19T07:18:32;19.90;99.90
36816;DHT22;22760;51.910;4.474;2022-08-19T07:21:03;20.00;99.90
36816;DHT22;22760;51.910;4.474;2022-08-19T07:23:30;20.10;99.90
36816;DHT22;22760;51.910;4.474;2022-08-19T07:25:57;20.10;99.90
36816;DHT22;22760;51.910;4.474;2022-08-19T07:28:24;20.10;99.90
36816;DHT22;22760;51.910;4.474;2022-08-19T07:30:51;20.20;99.90
36816;DHT22;22760;51.910;4.474;2022-08-19T07:33:18;20.10;99.90
36816;DHT22;22760;51.910;4.474;2022-08-19T07:35:46;20.10;99.90
36816;DHT22;22760;51.910;4.474;2022-08-19T07:38:13;20.10;99.90
36816;DHT22;22760;51.910;4.474;2022-08-19T07:40:41;20.10;99.90
36816;DHT22;22760;51.910;4.474;2022-08-19T07:43:08;20.10;99.90
36816;DHT22;22760;51.910;4.474;2022-08-19T07:45:35;20.10;99.90
36816;DHT22;22760;51.910;4.474;2022-08-19T07:48:02;20.10;99.90
36816;DHT22;22760;51.910;4.474;2022-08-19T07:50:29;20.10;99.90
36816;DHT22;22760;51.910;4.474;2022-08-19T07:52:57;20.10;99.90
36816;DHT22;22760;51.910;4.474;2022-08-19T07:55:25;20.20;99.90
36816;DHT22;22760;51.910;4.474;2022-08-19T07:57:52;20.20;99.90
36816;DHT22;22760;51.910;4.474;2022-08-19T08:00:19;20.20;99.90
36816;DHT22;22760;51.910;4.474;2022-08-19T08:02:46;20.20;99.90
36816;DHT22;22760;51.910;4.474;2022-08-19T08:05:13;20.20;99.90
36816;DHT22;22760;51.910;4.474;2022-08-19T08:07:58;20.30;99.90
36816;DHT22;22760;51.910;4.474;2022-08-19T08:10:42;20.30;99.90
36816;DHT22;22760;51.910;4.474;2022-08-19T08:13:09;20.50;99.90
36816;DHT22;22760;51.910;4.474;2022-08-19T08:15:36;20.50;99.90
36816;DHT22;22760;51.910;4.474;2022-08-19T08:18:04;20.50;99.90
36816;DHT22;22760;51.910;4.474;2022-08-19T08:20:31;20.70;99.90
36816;DHT22;22760;51.910;4.474;2022-08-19T08:22:59;20.80;99.90
36816;DHT22;22760;51.910;4.474;2022-08-19T08:25:43;20.90;99.90
36816;DHT22;22760;51.910;4.474;2022-08-19T08:28:10;21.10;99.90
36816;DHT22;22760;51.910;4.474;2022-08-19T08:30:37;21.20;99.90
36816;DHT22;22760;51.910;4.474;2022-08-19T08:33:07;21.10;99.90
36816;DHT22;22760;51.910;4.474;2022-08-19T08:35:34;21.10;99.90
36816;DHT22;22760;51.910;4.474;2022-08-19T08:38:03;21.10;99.90
36816;DHT22;22760;51.910;4.474;2022-08-19T08:40:39;21.10;99.90
36816;DHT22;22760;51.910;4.474;2022-08-19T08:43:11;21.30;99.90
36816;DHT22;22760;51.910;4.474;2022-08-19T08:45:44;21.50;99.90
36816;DHT22;22760;51.910;4.474;2022-08-19T08:48:20;21.70;99.90
36816;DHT22;22760;51.910;4.474;2022-08-19T08:50:49;21.80;99.90
36816;DHT22;22760;51.910;4.474;2022-08-19T08:53:19;22.00;99.90
36816;DHT22;22760;51.910;4.474;2022-08-19T08:55:46;22.10;99.90
36816;DHT22;22760;51.910;4.474;2022-08-19T08:58:17;22.10;99.90
36816;DHT22;22760;51.910;4.474;2022-08-19T09:00:48;22.00;99.90
36816;DHT22;22760;51.910;4.474;2022-08-19T09:03:18;22.20;99.90
36816;DHT22;22760;51.910;4.474;2022-08-19T09:05:57;22.20;99.90
36816;DHT22;22760;51.910;4.474;2022-08-19T09:08:36;21.90;99.90
36816;DHT22;22760;51.910;4.474;2022-08-19T09:11:08;21.80;99.90
36816;DHT22;22760;51.910;4.474;2022-08-19T09:13:42;21.70;99.90
36816;DHT22;22760;51.910;4.474;2022-08-19T09:16:20;21.70;99.90
36816;DHT22;22760;51.910;4.474;2022-08-19T09:18:54;21.60;99.90
36816;DHT22;22760;51.910;4.474;2022-08-19T09:21:24;21.60;99.90
36816;DHT22;22760;51.910;4.474;2022-08-19T09:23:52;21.50;99.90
36816;DHT22;22760;51.910;4.474;2022-08-19T09:26:21;21.70;99.90
36816;DHT22;22760;51.910;4.474;2022-08-19T09:28:50;21.80;99.90
36816;DHT22;22760;51.910;4.474;2022-08-19T09:31:19;21.80;99.90
36816;DHT22;22760;51.910;4.474;2022-08-19T09:33:47;21.80;99.90
36816;DHT22;22760;51.910;4.474;2022-08-19T09:36:17;21.70;99.90
36816;DHT22;22760;51.910;4.474;2022-08-19T09:38:44;21.70;99.90
36816;DHT22;22760;51.910;4.474;2022-08-19T09:41:15;21.60;99.90
36816;DHT22;22760;51.910;4.474;2022-08-19T09:43:44;21.60;99.90
36816;DHT22;22760;51.910;4.474;2022-08-19T09:46:12;21.60;99.90
36816;DHT22;22760;51.910;4.474;2022-08-19T09:48:39;21.70;99.90
36816;DHT22;22760;51.910;4.474;2022-08-19T09:51:09;21.60;99.90
36816;DHT22;22760;51.910;4.474;2022-08-19T09:53:36;21.60;99.90
36816;DHT22;22760;51.910;4.474;2022-08-19T09:56:03;21.60;99.90
36816;DHT22;22760;51.910;4.474;2022-08-19T09:58:33;21.50;99.90
36816;DHT22;22760;51.910;4.474;2022-08-19T10:01:01;21.60;99.90
36816;DHT22;22760;51.910;4.474;2022-08-19T10:03:29;21.60;99.90
36816;DHT22;22760;51.910;4.474;2022-08-19T10:05:58;21.70;99.90
36816;DHT22;22760;51.910;4.474;2022-08-19T10:08:28;21.70;99.90
36816;DHT22;22760;51.910;4.474;2022-08-19T10:10:55;21.80;99.90
36816;DHT22;22760;51.910;4.474;2022-08-19T10:13:25;21.80;99.90
36816;DHT22;22760;51.910;4.474;2022-08-19T10:15:54;21.90;99.90
36816;DHT22;22760;51.910;4.474;2022-08-19T10:18:23;21.90;99.90
36816;DHT22;22760;51.910;4.474;2022-08-19T10:20:51;22.30;99.90
36816;DHT22;22760;51.910;4.474;2022-08-19T10:23:20;22.80;99.90
36816;DHT22;22760;51.910;4.474;2022-08-19T10:25:48;23.10;99.90
36816;DHT22;22760;51.910;4.474;2022-08-19T10:28:15;23.40;99.90
36816;DHT22;22760;51.910;4.474;2022-08-19T10:30:42;23.40;99.90
36816;DHT22;22760;51.910;4.474;2022-08-19T10:33:10;23.20;99.90
36816;DHT22;22760;51.910;4.474;2022-08-19T10:35:39;23.10;99.90
36816;DHT22;22760;51.910;4.474;2022-08-19T10:38:06;23.20;99.90
36816;DHT22;22760;51.910;4.474;2022-08-19T10:40:32;23.30;99.90
36816;DHT22;22760;51.910;4.474;2022-08-19T10:43:00;23.20;99.90
36816;DHT22;22760;51.910;4.474;2022-08-19T10:45:27;22.90;99.90
36816;DHT22;22760;51.910;4.474;2022-08-19T10:47:53;22.60;99.90
36816;DHT22;22760;51.910;4.474;2022-08-19T10:50:21;22.60;99.90
36816;DHT22;22760;51.910;4.474;2022-08-19T10:53:07;22.40;99.90
36816;DHT22;22760;51.910;4.474;2022-08-19T10:55:35;22.30;99.90
36816;DHT22;22760;51.910;4.474;2022-08-19T10:58:21;22.20;99.90
36816;DHT22;22760;51.910;4.474;2022-08-19T11:00:55;22.20;99.90
36816;DHT22;22760;51.910;4.474;2022-08-19T11:03:22;22.30;99.90
36816;DHT22;22760;51.910;4.474;2022-08-19T11:05:58;22.30;99.90
36816;DHT22;22760;51.910;4.474;2022-08-19T11:08:25;22.40;99.90
36816;DHT22;22760;51.910;4.474;2022-08-19T11:10:54;22.50;99.90
36816;DHT22;22760;51.910;4.474;2022-08-19T11:13:26;22.60;99.90
36816;DHT22;22760;51.910;4.474;2022-08-19T11:16:01;22.60;99.90
36816;DHT22;22760;51.910;4.474;2022-08-19T11:18:28;22.50;99.90
36816;DHT22;22760;51.910;4.474;2022-08-19T11:20:55;22.50;99.90
36816;DHT22;22760;51.910;4.474;2022-08-19T11:23:32;22.50;99.90
36816;DHT22;22760;51.910;4.474;2022-08-19T11:25:59;22.40;99.90
36816;DHT22;22760;51.910;4.474;2022-08-19T11:28:26;21.90;99.90
36816;DHT22;22760;51.910;4.474;2022-08-19T11:30:53;21.60;99.90
36816;DHT22;22760;51.910;4.474;2022-08-19T11:33:20;21.30;99.90
36816;DHT22;22760;51.910;4.474;2022-08-19T11:35:47;21.20;99.90
36816;DHT22;22760;51.910;4.474;2022-08-19T11:38:14;21.10;99.90
36816;DHT22;22760;51.910;4.474;2022-08-19T11:40:43;21.10;99.90
36816;DHT22;22760;51.910;4.474;2022-08-19T11:43:09;21.00;99.90
36816;DHT22;22760;51.910;4.474;2022-08-19T11:45:36;20.90;99.90
36816;DHT22;22760;51.910;4.474;2022-08-19T11:48:03;20.90;99.90
36816;DHT22;22760;51.910;4.474;2022-08-19T11:50:30;20.80;99.90
36816;DHT22;22760;51.910;4.474;2022-08-19T11:52:57;20.80;99.90
36816;DHT22;22760;51.910;4.474;2022-08-19T11:55:23;20.70;99.90
36816;DHT22;22760;51.910;4.474;2022-08-19T11:57:52;20.70;99.90
36816;DHT22;22760;51.910;4.474;2022-08-19T12:00:19;20.60;99.90
36816;DHT22;22760;51.910;4.474;2022-08-19T12:02:45;20.60;99.90
36816;DHT22;22760;51.910;4.474;2022-08-19T12:05:12;20.60;99.90
36816;DHT22;22760;51.910;4.474;2022-08-19T12:07:40;20.60;99.90
36816;DHT22;22760;51.910;4.474;2022-08-19T12:10:09;20.60;99.90
36816;DHT22;22760;51.910;4.474;2022-08-19T12:12:36;20.70;99.90
36816;DHT22;22760;51.910;4.474;2022-08-19T12:15:08;20.90;99.90
36816;DHT22;22760;51.910;4.474;2022-08-19T12:17:37;20.90;99.90
36816;DHT22;22760;51.910;4.474;2022-08-19T12:20:05;20.90;99.90
36816;DHT22;22760;51.910;4.474;2022-08-19T12:22:33;20.90;99.90
36816;DHT22;22760;51.910;4.474;2022-08-19T12:25:01;20.90;99.90
36816;DHT22;22760;51.910;4.474;2022-08-19T12:27:27;20.90;99.90
36816;DHT22;22760;51.910;4.474;2022-08-19T12:29:54;20.90;99.90
36816;DHT22;22760;51.910;4.474;2022-08-19T12:32:22;21.00;99.90
36816;DHT22;22760;51.910;4.474;2022-08-19T12:34:50;20.90;99.90
36816;DHT22;22760;51.910;4.474;2022-08-19T12:37:16;21.00;99.90
36816;DHT22;22760;51.910;4.474;2022-08-19T12:39:43;21.00;99.90
36816;DHT22;22760;51.910;4.474;2022-08-19T12:42:11;21.10;99.90
36816;DHT22;22760;51.910;4.474;2022-08-19T12:44:41;21.10;99.90
36816;DHT22;22760;51.910;4.474;2022-08-19T12:47:10;21.20;99.90
36816;DHT22;22760;51.910;4.474;2022-08-19T12:49:38;21.20;99.90
36816;DHT22;22760;51.910;4.474;2022-08-19T12:52:06;21.30;99.90
36816;DHT22;22760;51.910;4.474;2022-08-19T12:54:34;21.30;99.90
36816;DHT22;22760;51.910;4.474;2022-08-19T12:57:04;21.30;99.90
36816;DHT22;22760;51.910;4.474;2022-08-19T12:59:31;21.30;99.90
36816;DHT22;22760;51.910;4.474;2022-08-19T13:01:57;21.30;99.90
36816;DHT22;22760;51.910;4.474;2022-08-19T13:04:24;21.30;99.90
36816;DHT22;22760;51.910;4.474;2022-08-19T13:06:52;21.30;99.90
36816;DHT22;22760;51.910;4.474;2022-08-19T13:09:19;21.30;99.90
36816;DHT22;22760;51.910;4.474;2022-08-19T13:11:46;21.40;99.90
36816;DHT22;22760;51.910;4.474;2022-08-19T13:14:12;21.30;99.90
36816;DHT22;22760;51.910;4.474;2022-08-19T13:16:39;21.30;99.90
36816;DHT22;22760;51.910;4.474;2022-08-19T13:19:06;21.20;99.90
36816;DHT22;22760;51.910;4.474;2022-08-19T13:21:33;21.20;99.90
36816;DHT22;22760;51.910;4.474;2022-08-19T13:24:01;21.30;99.90
36816;DHT22;22760;51.910;4.474;2022-08-19T13:26:28;21.40;99.90
36816;DHT22;22760;51.910;4.474;2022-08-19T13:28:55;21.60;99.90
36816;DHT22;22760;51.910;4.474;2022-08-19T13:31:41;21.80;99.90
36816;DHT22;22760;51.910;4.474;2022-08-19T13:34:28;21.90;99.90
36816;DHT22;22760;51.910;4.474;2022-08-19T13:36:56;21.70;99.90
36816;DHT22;22760;51.910;4.474;2022-08-19T13:39:24;21.50;99.90
36816;DHT22;22760;51.910;4.474;2022-08-19T13:41:51;21.50;99.90
36816;DHT22;22760;51.910;4.474;2022-08-19T13:44:18;21.40;99.90
36816;DHT22;22760;51.910;4.474;2022-08-19T13:46:45;21.30;99.90
36816;DHT22;22760;51.910;4.474;2022-08-19T13:49:13;21.30;99.90
36816;DHT22;22760;51.910;4.474;2022-08-19T13:51:40;21.20;99.90
36816;DHT22;22760;51.910;4.474;2022-08-19T13:54:08;21.20;99.90
36816;DHT22;22760;51.910;4.474;2022-08-19T13:56:40;21.30;99.90
36816;DHT22;22760;51.910;4.474;2022-08-19T13:59:07;21.30;99.90
36816;DHT22;22760;51.910;4.474;2022-08-19T14:01:34;21.30;99.90
36816;DHT22;22760;51.910;4.474;2022-08-19T14:04:01;21.40;99.90
36816;DHT22;22760;51.910;4.474;2022-08-19T14:06:28;21.60;99.90
36816;DHT22;22760;51.910;4.474;2022-08-19T14:08:55;21.70;99.90
36816;DHT22;22760;51.910;4.474;2022-08-19T14:11:22;21.90;99.90
36816;DHT22;22760;51.910;4.474;2022-08-19T14:13:50;22.00;99.90
36816;DHT22;22760;51.910;4.474;2022-08-19T14:16:17;22.30;99.90
36816;DHT22;22760;51.910;4.474;2022-08-19T14:18:44;22.40;99.90
36816;DHT22;22760;51.910;4.474;2022-08-19T14:21:16;22.50;99.90
36816;DHT22;22760;51.910;4.474;2022-08-19T14:23:43;22.30;99.90
36816;DHT22;22760;51.910;4.474;2022-08-19T14:26:13;22.30;99.90
36816;DHT22;22760;51.910;4.474;2022-08-19T14:28:41;22.20;99.90
36816;DHT22;22760;51.910;4.474;2022-08-19T14:31:09;22.10;99.90
36816;DHT22;22760;51.910;4.474;2022-08-19T14:33:36;22.10;99.90
36816;DHT22;22760;51.910;4.474;2022-08-19T14:36:03;22.10;99.90
36816;DHT22;22760;51.910;4.474;2022-08-19T14:38:30;22.00;99.90
36816;DHT22;22760;51.910;4.474;2022-08-19T14:41:07;22.00;99.90
36816;DHT22;22760;51.910;4.474;2022-08-19T14:43:34;21.90;99.90
36816;DHT22;22760;51.910;4.474;2022-08-19T14:46:01;21.80;99.90
36816;DHT22;22760;51.910;4.474;2022-08-19T14:48:29;21.70;99.90
36816;DHT22;22760;51.910;4.474;2022-08-19T14:50:56;21.70;99.90
36816;DHT22;22760;51.910;4.474;2022-08-19T14:53:23;21.60;99.90
36816;DHT22;22760;51.910;4.474;2022-08-19T14:55:51;21.50;99.90
36816;DHT22;22760;51.910;4.474;2022-08-19T14:58:17;21.40;99.90
36816;DHT22;22760;51.910;4.474;2022-08-19T15:00:44;21.30;99.90
36816;DHT22;22760;51.910;4.474;2022-08-19T15:03:11;21.20;99.90
36816;DHT22;22760;51.910;4.474;2022-08-19T15:05:40;21.10;99.90
36816;DHT22;22760;51.910;4.474;2022-08-19T15:08:06;21.10;99.90
36816;DHT22;22760;51.910;4.474;2022-08-19T15:10:33;21.00;99.90
36816;DHT22;22760;51.910;4.474;2022-08-19T15:13:00;20.90;99.90
36816;DHT22;22760;51.910;4.474;2022-08-19T15:15:27;20.90;99.90
36816;DHT22;22760;51.910;4.474;2022-08-19T15:17:53;20.80;99.90
36816;DHT22;22760;51.910;4.474;2022-08-19T15:20:21;20.80;99.90
36816;DHT22;22760;51.910;4.474;2022-08-19T15:22:50;20.70;99.90
36816;DHT22;22760;51.910;4.474;2022-08-19T15:25:18;20.70;99.90
36816;DHT22;22760;51.910;4.474;2022-08-19T15:27:45;20.70;99.90
36816;DHT22;22760;51.910;4.474;2022-08-19T15:30:19;20.70;99.90
36816;DHT22;22760;51.910;4.474;2022-08-19T15:32:47;20.80;99.90
36816;DHT22;22760;51.910;4.474;2022-08-19T15:35:14;20.80;99.90
36816;DHT22;22760;51.910;4.474;2022-08-19T15:37:42;20.70;99.90